createdAt,value
2019-05-29T00:01:58.830Z,81.50
2019-05-29T00:04:30.650Z,81.40
2019-05-29T00:07:02.396Z,83.40
2019-05-29T00:09:34.138Z,81.30
2019-05-29T00:12:08.490Z,83.40
2019-05-29T00:14:40.763Z,82.00
2019-05-29T00:17:12.576Z,82.70
2019-05-29T00:19:45.356Z,83.80
2019-05-29T00:22:17.143Z,82.90
2019-05-29T00:24:48.872Z,84.10
2019-05-29T00:27:20.650Z,83.20
2019-05-29T00:29:52.472Z,83.40
2019-05-29T00:32:24.168Z,83.70
2019-05-29T00:34:55.906Z,85.00
2019-05-29T00:37:28.082Z,85.60
2019-05-29T00:39:59.848Z,85.50
2019-05-29T00:42:31.628Z,87.20
2019-05-29T00:45:03.342Z,87.20
2019-05-29T00:47:35.267Z,87.30
2019-05-29T00:50:08.082Z,83.70
2019-05-29T00:52:39.856Z,86.10
2019-05-29T00:55:12.559Z,86.60
2019-05-29T00:57:44.334Z,84.80
2019-05-29T01:00:17.371Z,83.20
2019-05-29T01:02:49.461Z,83.00
2019-05-29T01:05:21.221Z,82.60
2019-05-29T01:07:52.924Z,83.40
2019-05-29T01:10:24.680Z,84.90
2019-05-29T01:12:56.334Z,85.50
2019-05-29T01:15:27.954Z,86.00
2019-05-29T01:17:59.613Z,89.00
2019-05-29T01:20:31.395Z,89.50
2019-05-29T01:23:03.142Z,90.20
2019-05-29T01:25:34.857Z,90.50
2019-05-29T01:28:06.547Z,90.80
2019-05-29T01:30:38.232Z,90.10
2019-05-29T01:33:09.931Z,90.50
2019-05-29T01:35:41.872Z,90.20
2019-05-29T01:38:15.147Z,90.40
2019-05-29T01:40:46.958Z,91.10
2019-05-29T01:43:19.340Z,91.50
2019-05-29T01:45:51.068Z,91.20
2019-05-29T01:48:23.667Z,93.20
2019-05-29T01:50:55.490Z,93.30
2019-05-29T01:53:27.992Z,93.40
2019-05-29T01:55:59.795Z,92.60
2019-05-29T01:58:31.680Z,93.80
2019-05-29T02:01:03.718Z,93.90
2019-05-29T02:03:35.618Z,93.20
2019-05-29T02:06:07.438Z,92.60
2019-05-29T02:08:39.445Z,91.20
2019-05-29T02:11:15.057Z,91.80
2019-05-29T02:13:46.859Z,90.70
2019-05-29T02:16:18.744Z,91.80
2019-05-29T02:18:51.940Z,92.70
2019-05-29T02:21:24.150Z,92.50
2019-05-29T02:23:56.007Z,93.30
2019-05-29T02:26:27.699Z,92.60
2019-05-29T02:28:59.394Z,93.60
2019-05-29T02:31:31.117Z,93.40
2019-05-29T02:34:06.588Z,93.70
2019-05-29T02:36:36.260Z,94.00
2019-05-29T02:39:09.244Z,94.70
2019-05-29T02:41:41.318Z,95.00
2019-05-29T02:44:12.925Z,94.40
2019-05-29T02:46:46.782Z,95.50
2019-05-29T02:49:19.727Z,94.90
2019-05-29T02:51:51.920Z,93.90
2019-05-29T02:54:24.920Z,93.20
2019-05-29T02:56:57.264Z,92.10
2019-05-29T02:59:29.870Z,91.00
2019-05-29T03:02:02.482Z,91.50
2019-05-29T03:04:35.491Z,90.50
2019-05-29T03:07:07.331Z,91.60
2019-05-29T03:09:39.231Z,91.80
2019-05-29T03:12:11.198Z,92.20
2019-05-29T03:14:43.173Z,92.50
2019-05-29T03:17:15.574Z,92.70
2019-05-29T03:19:47.524Z,92.80
2019-05-29T03:22:19.411Z,93.50
2019-05-29T03:24:51.608Z,93.40
2019-05-29T03:27:23.697Z,94.10
2019-05-29T03:29:55.615Z,95.00
2019-05-29T03:32:30.640Z,94.00
2019-05-29T03:35:00.987Z,93.80
2019-05-29T03:37:34.468Z,94.10
2019-05-29T03:40:07.427Z,94.30
2019-05-29T03:42:39.416Z,95.30
2019-05-29T03:45:11.746Z,94.60
2019-05-29T03:47:43.767Z,94.70
2019-05-29T03:50:16.232Z,93.60
2019-05-29T03:52:49.100Z,99.90
2019-05-29T03:55:21.005Z,93.90
2019-05-29T03:57:52.894Z,91.70
2019-05-29T04:00:24.500Z,90.00
2019-05-29T04:02:56.156Z,90.30
2019-05-29T04:05:29.099Z,90.90
2019-05-29T04:08:00.932Z,90.90
2019-05-29T04:10:34.867Z,91.20
2019-05-29T04:13:06.232Z,90.40
2019-05-29T04:15:38.751Z,90.20
2019-05-29T04:18:11.738Z,90.80
2019-05-29T04:20:45.399Z,90.30
2019-05-29T04:23:17.533Z,90.40
2019-05-29T04:25:50.033Z,89.30
2019-05-29T04:28:22.061Z,90.00
2019-05-29T04:30:53.707Z,85.60
2019-05-29T04:33:25.360Z,85.80
2019-05-29T04:35:57.019Z,84.50
2019-05-29T04:38:29.168Z,83.10
2019-05-29T04:41:02.049Z,81.40
2019-05-29T04:43:35.472Z,80.00
2019-05-29T04:46:07.231Z,75.70
2019-05-29T04:48:40.462Z,76.80
2019-05-29T04:51:13.348Z,74.70
2019-05-29T04:53:45.027Z,73.60
2019-05-29T04:56:16.873Z,66.50
2019-05-29T04:58:48.614Z,65.20
2019-05-29T05:01:20.355Z,64.60
2019-05-29T05:03:51.973Z,65.10
2019-05-29T05:06:24.095Z,63.50
2019-05-29T05:08:55.807Z,64.10
2019-05-29T05:11:27.695Z,61.90
2019-05-29T05:14:01.665Z,60.80
2019-05-29T05:16:33.673Z,59.80
2019-05-29T05:19:05.887Z,56.50
2019-05-29T05:21:38.105Z,57.50
2019-05-29T05:24:09.995Z,49.90
2019-05-29T05:26:41.796Z,48.50
2019-05-29T05:29:13.760Z,44.60
2019-05-29T05:31:45.505Z,40.80
2019-05-29T05:34:17.383Z,34.70
2019-05-29T05:36:49.220Z,29.00
2019-05-29T05:39:22.185Z,22.10
2019-05-29T05:41:54.210Z,17.10
2019-05-29T05:44:25.891Z,17.20
2019-05-29T05:46:57.616Z,12.40
2019-05-29T05:49:29.471Z,13.50
2019-05-29T05:52:01.150Z,14.20
2019-05-29T05:54:33.396Z,12.00
2019-05-29T05:57:05.229Z,12.20
2019-05-29T05:59:37.696Z,9.90
2019-05-29T06:02:09.431Z,9.30
2019-05-29T06:04:42.137Z,6.30
2019-05-29T06:07:13.885Z,7.20
2019-05-29T06:09:45.476Z,4.30
2019-05-29T06:12:17.207Z,4.60
2019-05-29T06:14:48.820Z,6.00
2019-05-29T06:17:21.989Z,7.90
2019-05-29T06:19:53.880Z,5.90
2019-05-29T06:22:25.578Z,7.80
2019-05-29T06:24:57.532Z,6.90
2019-05-29T06:27:29.498Z,8.80
2019-05-29T06:30:01.431Z,9.50
2019-05-29T06:32:33.540Z,10.90
2019-05-29T06:35:05.460Z,10.40
2019-05-29T06:37:37.615Z,12.20
2019-05-29T06:40:09.915Z,10.40
2019-05-29T06:42:42.484Z,11.40
2019-05-29T06:45:16.313Z,11.40
2019-05-29T06:47:47.948Z,10.90
2019-05-29T06:50:19.617Z,13.90
2019-05-29T06:52:51.292Z,12.80
2019-05-29T06:55:22.933Z,14.90
2019-05-29T06:57:54.595Z,14.20
2019-05-29T07:00:35.230Z,13.50
2019-05-29T07:02:59.854Z,14.30
2019-05-29T07:05:31.553Z,15.80
2019-05-29T07:08:18.265Z,15.90
2019-05-29T07:10:38.384Z,15.30
2019-05-29T07:13:10.451Z,9.90
2019-05-29T07:15:42.913Z,8.80
2019-05-29T07:18:14.847Z,8.30
2019-05-29T07:20:47.003Z,8.00
2019-05-29T07:23:18.759Z,7.20
2019-05-29T07:25:50.561Z,9.30
2019-05-29T07:28:22.256Z,7.50
2019-05-29T07:31:01.704Z,6.60
2019-05-29T07:33:27.297Z,7.20
2019-05-29T07:35:59.038Z,9.70
2019-05-29T07:38:30.986Z,9.50
2019-05-29T07:41:02.817Z,6.30
2019-05-29T07:43:34.754Z,5.00
2019-05-29T07:46:06.430Z,5.10
2019-05-29T07:48:38.505Z,1.90
2019-05-29T07:51:10.249Z,1.00
2019-05-29T07:53:44.175Z,1.00
2019-05-29T07:56:22.784Z,1.70
2019-05-29T07:59:01.903Z,1.40
2019-05-29T08:01:23.098Z,3.40
2019-05-29T08:03:54.879Z,5.10
2019-05-29T08:06:26.482Z,1.00
2019-05-29T08:08:58.185Z,1.40
2019-05-29T08:11:29.906Z,1.00
2019-05-29T08:14:01.610Z,1.50
2019-05-29T08:16:33.691Z,1.00
2019-05-29T08:19:07.954Z,1.10
2019-05-29T08:21:40.830Z,1.00
2019-05-29T08:24:12.522Z,1.00
2019-05-29T08:26:44.804Z,1.00
2019-05-29T08:29:16.544Z,1.50
2019-05-29T08:31:48.940Z,1.70
2019-05-29T08:34:20.666Z,1.50
2019-05-29T08:37:05.885Z,1.40
2019-05-29T08:39:36.077Z,1.00
2019-05-29T08:42:21.218Z,1.00
2019-05-29T08:44:32.665Z,1.00
2019-05-29T08:47:10.668Z,1.00
2019-05-29T08:49:37.790Z,1.00
2019-05-29T08:52:12.239Z,1.00
2019-05-29T08:54:43.888Z,1.00
2019-05-29T08:57:15.799Z,1.00
2019-05-29T08:59:48.448Z,1.00
2019-05-29T09:02:20.197Z,1.00
2019-05-29T09:04:53.094Z,1.00
2019-05-29T09:07:25.299Z,1.00
2019-05-29T09:09:57.105Z,1.00
2019-05-29T09:12:29.976Z,1.00
2019-05-29T09:15:03.082Z,1.00
2019-05-29T09:17:35.088Z,1.00
2019-05-29T09:20:31.107Z,1.00
2019-05-29T09:22:47.133Z,1.00
2019-05-29T09:25:19.158Z,1.00
2019-05-29T09:27:50.884Z,1.00
2019-05-29T09:30:23.623Z,1.00
2019-05-29T09:32:55.291Z,1.00
2019-05-29T09:35:26.945Z,1.00
2019-05-29T09:37:58.845Z,1.00
2019-05-29T09:40:30.601Z,1.00
2019-05-29T09:43:02.331Z,1.00
2019-05-29T09:45:34.157Z,1.00
2019-05-29T09:48:05.879Z,1.00
2019-05-29T09:50:49.450Z,1.00
2019-05-29T09:53:11.098Z,1.00
2019-05-29T09:55:43.393Z,1.00
2019-05-29T09:58:15.172Z,1.00
2019-05-29T10:00:47.446Z,1.00
2019-05-29T10:03:20.123Z,1.00
2019-05-29T10:05:54.059Z,1.00
2019-05-29T10:08:25.162Z,1.00
2019-05-29T10:11:04.645Z,1.00
2019-05-29T10:13:30.183Z,1.00
2019-05-29T10:16:02.964Z,1.00
2019-05-29T10:18:34.602Z,1.00
2019-05-29T10:21:06.475Z,1.00
2019-05-29T10:23:38.386Z,1.00
2019-05-29T10:26:10.290Z,1.00
2019-05-29T10:28:55.830Z,1.00
2019-05-29T10:31:15.315Z,1.00
2019-05-29T10:33:48.250Z,1.00
2019-05-29T10:36:21.429Z,1.00
2019-05-29T10:38:53.413Z,1.00
2019-05-29T10:41:25.016Z,1.00
2019-05-29T10:43:56.720Z,1.00
2019-05-29T10:46:28.319Z,1.00
2019-05-29T10:49:02.181Z,1.00
2019-05-29T10:51:33.438Z,1.00
2019-05-29T10:54:05.128Z,1.00
2019-05-29T10:56:37.753Z,1.00
2019-05-29T10:59:09.473Z,1.00
2019-05-29T11:01:41.191Z,1.00
2019-05-29T11:04:13.080Z,1.00
2019-05-29T11:06:46.165Z,1.00
2019-05-29T11:09:18.243Z,1.00
2019-05-29T11:11:50.708Z,1.00
2019-05-29T11:14:22.679Z,1.00
2019-05-29T11:16:55.063Z,1.00
2019-05-29T11:19:26.763Z,1.00
2019-05-29T11:22:01.728Z,1.00
2019-05-29T11:24:31.820Z,1.00
2019-05-29T11:27:03.600Z,1.00
2019-05-29T11:29:35.347Z,1.00
2019-05-29T11:32:07.318Z,1.00
2019-05-29T11:34:39.035Z,1.00
2019-05-29T11:37:10.767Z,1.00
2019-05-29T11:39:42.426Z,1.00
2019-05-29T11:42:27.047Z,1.00
2019-05-29T11:44:47.648Z,1.00
2019-05-29T11:47:19.418Z,1.00
2019-05-29T11:49:51.183Z,1.00
2019-05-29T11:52:25.192Z,1.00
2019-05-29T11:54:59.943Z,1.00
2019-05-29T11:57:30.638Z,1.00
2019-05-29T12:00:16.326Z,1.00
2019-05-29T12:02:37.021Z,1.00
2019-05-29T12:05:10.181Z,1.00
2019-05-29T12:07:41.877Z,1.00
2019-05-29T12:10:13.721Z,1.00
2019-05-29T12:12:45.711Z,1.00
2019-05-29T12:15:18.891Z,1.00
2019-05-29T12:18:00.219Z,1.00
2019-05-29T12:20:28.065Z,1.00
2019-05-29T12:23:18.827Z,1.00
2019-05-29T12:25:31.659Z,1.00
2019-05-29T12:28:03.567Z,1.00
2019-05-29T12:30:36.242Z,1.00
2019-05-29T12:33:08.147Z,1.00
2019-05-29T12:35:39.776Z,1.00
2019-05-29T12:38:11.554Z,1.00
2019-05-29T12:40:43.426Z,1.00
2019-05-29T12:43:26.379Z,1.00
2019-05-29T12:45:48.638Z,1.00
2019-05-29T12:48:20.288Z,1.00
2019-05-29T12:50:53.890Z,1.00
2019-05-29T12:53:30.302Z,1.00
2019-05-29T12:56:00.353Z,1.00
2019-05-29T12:58:33.473Z,1.00
2019-05-29T13:01:05.372Z,1.00
2019-05-29T13:03:37.352Z,1.00
2019-05-29T13:06:09.101Z,1.00
2019-05-29T13:08:40.811Z,1.00
2019-05-29T13:11:12.462Z,1.00
2019-05-29T13:13:44.100Z,1.00
2019-05-29T13:16:15.734Z,1.00
2019-05-29T13:18:47.630Z,1.00
2019-05-29T13:21:19.274Z,1.00
2019-05-29T13:23:51.015Z,1.00
2019-05-29T13:26:22.688Z,1.00
2019-05-29T13:28:55.490Z,1.00
2019-05-29T13:31:27.236Z,1.00
2019-05-29T13:33:59.900Z,1.00
2019-05-29T13:36:31.836Z,1.00
2019-05-29T13:39:04.893Z,1.00
2019-05-29T13:41:36.803Z,1.00
2019-05-29T13:44:08.807Z,1.00
2019-05-29T13:46:40.567Z,1.00
2019-05-29T13:49:12.298Z,1.00
2019-05-29T13:51:44.010Z,1.00
2019-05-29T13:54:18.098Z,1.00
2019-05-29T13:56:49.415Z,1.00
2019-05-29T13:59:21.168Z,1.00
2019-05-29T14:01:52.846Z,1.00
2019-05-29T14:04:24.509Z,1.00
2019-05-29T14:06:56.265Z,1.00
2019-05-29T14:09:28.275Z,1.00
2019-05-29T14:12:00.955Z,1.00
2019-05-29T14:14:33.754Z,1.00
2019-05-29T14:17:06.613Z,1.00
2019-05-29T14:19:38.660Z,1.00
2019-05-29T14:22:10.556Z,1.00
2019-05-29T14:24:42.340Z,1.00
2019-05-29T14:27:14.005Z,1.00
2019-05-29T14:29:45.830Z,1.00
2019-05-29T14:32:17.549Z,1.00
2019-05-29T14:34:49.649Z,1.00
2019-05-29T14:37:21.354Z,1.00
2019-05-29T14:39:53.092Z,1.00
2019-05-29T14:42:24.754Z,1.00
2019-05-29T14:44:56.391Z,1.00
2019-05-29T14:47:27.979Z,1.00
2019-05-29T14:50:00.299Z,1.00
2019-05-29T14:52:31.973Z,1.00
2019-05-29T14:55:04.569Z,1.00
2019-05-29T14:57:36.279Z,1.00
2019-05-29T15:00:20.938Z,1.00
2019-05-29T15:02:42.113Z,1.00
2019-05-29T15:05:15.005Z,1.00
2019-05-29T15:07:46.995Z,1.00
2019-05-29T15:10:26.901Z,1.00
2019-05-29T15:12:57.685Z,1.00
2019-05-29T15:15:26.762Z,1.00
2019-05-29T15:17:58.537Z,1.00
2019-05-29T15:20:30.325Z,1.00
2019-05-29T15:23:02.082Z,1.00
2019-05-29T15:25:43.004Z,1.00
2019-05-29T15:28:16.362Z,1.00
2019-05-29T15:30:50.295Z,1.00
2019-05-29T15:33:22.688Z,1.00
2019-05-29T15:35:54.503Z,1.00
2019-05-29T15:38:26.261Z,1.00
2019-05-29T15:40:58.089Z,1.00
2019-05-29T15:43:29.894Z,1.00
2019-05-29T15:46:01.779Z,1.00
2019-05-29T15:48:33.745Z,1.00
2019-05-29T15:51:06.809Z,1.00
2019-05-29T15:53:38.618Z,1.00
2019-05-29T15:56:21.347Z,1.00
2019-05-29T15:58:43.788Z,1.00
2019-05-29T16:01:15.783Z,1.00
2019-05-29T16:03:47.423Z,1.00
2019-05-29T16:06:19.282Z,1.00
2019-05-29T16:08:51.007Z,1.00
2019-05-29T16:11:25.344Z,1.00
2019-05-29T16:13:56.468Z,1.00
2019-05-29T16:16:29.173Z,1.00
2019-05-29T16:19:04.472Z,1.00
2019-05-29T16:21:36.496Z,1.00
2019-05-29T16:24:08.272Z,1.00
2019-05-29T16:26:40.132Z,1.00
2019-05-29T16:29:12.332Z,1.00
2019-05-29T16:31:44.630Z,1.00
2019-05-29T16:34:18.943Z,1.00
2019-05-29T16:36:50.008Z,1.00
2019-05-29T16:39:22.992Z,1.00
2019-05-29T16:41:55.092Z,1.00
2019-05-29T16:44:29.498Z,1.00
2019-05-29T16:47:01.059Z,1.00
2019-05-29T16:49:32.946Z,1.00
2019-05-29T16:52:05.228Z,1.00
2019-05-29T16:54:37.314Z,1.00
2019-05-29T16:57:09.300Z,1.00
2019-05-29T16:59:41.225Z,1.00
2019-05-29T17:02:13.713Z,1.00
2019-05-29T17:04:45.591Z,1.00
2019-05-29T17:07:18.102Z,1.00
2019-05-29T17:09:50.076Z,1.00
2019-05-29T17:12:22.542Z,1.00
2019-05-29T17:14:54.537Z,1.00
2019-05-29T17:17:30.168Z,1.00
2019-05-29T17:20:00.030Z,1.00
2019-05-29T17:22:31.729Z,1.00
2019-05-29T17:25:03.534Z,1.00
2019-05-29T17:27:35.218Z,1.00
2019-05-29T17:30:08.008Z,1.00
2019-05-29T17:32:40.215Z,1.00
2019-05-29T17:35:12.556Z,1.00
2019-05-29T17:37:44.367Z,1.00
2019-05-29T17:40:17.047Z,1.00
2019-05-29T17:42:49.080Z,1.00
2019-05-29T17:45:24.540Z,1.00
2019-05-29T17:47:55.086Z,1.00
2019-05-29T17:50:27.054Z,1.00
2019-05-29T17:52:58.920Z,1.00
2019-05-29T17:55:30.872Z,1.00
2019-05-29T17:58:08.777Z,1.00
2019-05-29T18:00:40.849Z,1.00
2019-05-29T18:03:12.886Z,1.00
2019-05-29T18:05:44.726Z,1.00
2019-05-29T18:08:16.683Z,1.00
2019-05-29T18:10:50.366Z,1.00
2019-05-29T18:13:23.372Z,1.00
2019-05-29T18:15:56.400Z,1.00
2019-05-29T18:18:28.257Z,1.00
2019-05-29T18:21:00.018Z,1.00
2019-05-29T18:23:31.866Z,1.00
2019-05-29T18:26:03.745Z,1.00
2019-05-29T18:28:35.649Z,1.00
2019-05-29T18:31:08.443Z,1.00
2019-05-29T18:33:40.611Z,1.00
2019-05-29T18:36:12.803Z,1.00
2019-05-29T18:38:45.923Z,1.00
2019-05-29T18:41:18.140Z,1.00
2019-05-29T18:43:50.066Z,1.00
2019-05-29T18:46:23.219Z,1.00
2019-05-29T18:48:55.273Z,1.00
2019-05-29T18:51:27.029Z,1.00
2019-05-29T18:53:59.031Z,1.00
2019-05-29T18:56:30.767Z,1.00
2019-05-29T18:59:03.884Z,1.00
2019-05-29T19:01:35.856Z,1.00
2019-05-29T19:04:08.029Z,1.00
2019-05-29T19:06:40.400Z,1.00
2019-05-29T19:09:12.367Z,1.00
2019-05-29T19:11:44.336Z,1.00
2019-05-29T19:14:16.471Z,1.00
2019-05-29T19:16:48.762Z,1.00
2019-05-29T19:19:22.043Z,1.00
2019-05-29T19:21:53.957Z,1.00
2019-05-29T19:24:26.540Z,1.00
2019-05-29T19:26:59.644Z,1.00
2019-05-29T19:29:36.472Z,1.00
2019-05-29T19:32:08.275Z,1.00
2019-05-29T19:34:40.166Z,1.00
2019-05-29T19:37:12.153Z,1.00
2019-05-29T19:39:43.998Z,1.00
2019-05-29T19:42:16.922Z,1.00
2019-05-29T19:44:49.890Z,1.00
2019-05-29T19:47:23.085Z,1.00
2019-05-29T19:49:56.427Z,1.00
2019-05-29T19:52:29.081Z,1.00
2019-05-29T19:55:00.867Z,1.00
2019-05-29T19:57:50.716Z,1.00
2019-05-29T20:00:07.375Z,1.00
2019-05-29T20:02:39.901Z,1.00
2019-05-29T20:05:14.030Z,1.00
2019-05-29T20:07:45.803Z,1.00
2019-05-29T20:10:17.660Z,1.00
2019-05-29T20:12:49.417Z,1.00
2019-05-29T20:15:21.278Z,1.00
2019-05-29T20:17:53.382Z,1.00
2019-05-29T20:20:25.397Z,1.00
2019-05-29T20:22:57.216Z,1.00
2019-05-29T20:25:30.675Z,1.00
2019-05-29T20:28:06.633Z,1.00
2019-05-29T20:30:39.294Z,1.00
2019-05-29T20:33:11.213Z,1.00
2019-05-29T20:35:43.225Z,1.00
2019-05-29T20:38:15.556Z,1.00
2019-05-29T20:40:47.363Z,1.00
2019-05-29T20:43:19.185Z,1.00
2019-05-29T20:45:50.978Z,1.00
2019-05-29T20:48:22.833Z,1.00
2019-05-29T20:50:54.900Z,1.00
2019-05-29T20:53:26.998Z,1.00
2019-05-29T20:55:58.946Z,1.00
2019-05-29T20:58:31.635Z,1.00
2019-05-29T21:01:03.675Z,1.00
2019-05-29T21:03:36.565Z,1.00
2019-05-29T21:06:08.483Z,1.00
2019-05-29T21:08:41.114Z,1.00
2019-05-29T21:11:13.195Z,1.00
2019-05-29T21:13:45.023Z,1.00
2019-05-29T21:16:17.010Z,1.00
2019-05-29T21:18:48.721Z,1.00
2019-05-29T21:21:20.537Z,1.00
2019-05-29T21:23:52.743Z,1.00
2019-05-29T21:26:24.717Z,1.00
2019-05-29T21:28:56.688Z,1.00
2019-05-29T21:31:28.520Z,1.00
2019-05-29T21:34:00.569Z,1.00
2019-05-29T21:36:32.392Z,1.00
2019-05-29T21:39:17.285Z,1.00
2019-05-29T21:41:49.229Z,1.00
2019-05-29T21:44:21.080Z,1.00
2019-05-29T21:46:53.212Z,1.00
2019-05-29T21:49:25.263Z,1.00
2019-05-29T21:51:56.962Z,1.00
2019-05-29T21:54:28.826Z,1.00
2019-05-29T21:57:01.816Z,1.00
2019-05-29T21:59:33.565Z,1.00
2019-05-29T22:02:05.760Z,1.00
2019-05-29T22:04:38.387Z,1.00
2019-05-29T22:07:10.668Z,1.00
2019-05-29T22:09:42.856Z,1.00
2019-05-29T22:12:14.734Z,1.00
2019-05-29T22:14:46.611Z,1.00
2019-05-29T22:17:18.469Z,1.00
2019-05-29T22:19:50.767Z,1.00
2019-05-29T22:22:22.890Z,1.00
2019-05-29T22:24:55.184Z,1.00
2019-05-29T22:27:27.044Z,1.00
2019-05-29T22:29:59.438Z,1.00
2019-05-29T22:32:31.211Z,1.40
2019-05-29T22:35:02.951Z,1.40
2019-05-29T22:37:36.896Z,1.00
2019-05-29T22:40:08.940Z,2.30
2019-05-29T22:42:42.266Z,2.90
2019-05-29T22:45:14.064Z,3.40
2019-05-29T22:47:45.834Z,4.10
2019-05-29T22:50:17.534Z,5.20
2019-05-29T22:52:49.230Z,6.70
2019-05-29T22:55:21.095Z,7.90
2019-05-29T22:57:55.924Z,6.50
2019-05-29T23:00:27.835Z,6.20
2019-05-29T23:03:00.176Z,6.80
2019-05-29T23:05:31.975Z,7.90
2019-05-29T23:08:03.796Z,7.50
2019-05-29T23:10:35.559Z,9.90
2019-05-29T23:13:07.289Z,9.30
2019-05-29T23:15:39.048Z,9.70
2019-05-29T23:18:10.780Z,11.60
2019-05-29T23:20:42.467Z,12.00
2019-05-29T23:23:14.207Z,13.40
2019-05-29T23:25:45.896Z,12.10
2019-05-29T23:28:17.623Z,14.50
2019-05-29T23:30:49.370Z,14.60
2019-05-29T23:33:21.095Z,16.30
2019-05-29T23:35:52.989Z,15.90
2019-05-29T23:38:24.743Z,15.80
2019-05-29T23:40:57.466Z,15.90
2019-05-29T23:43:29.301Z,17.80
2019-05-29T23:46:02.395Z,19.00
2019-05-29T23:48:34.930Z,20.60
2019-05-29T23:51:06.655Z,22.20
2019-05-29T23:53:38.526Z,21.20
2019-05-29T23:56:11.700Z,22.60
2019-05-29T23:58:43.409Z,22.80
